sensor_id;sensor_type;location;lat;lon;timestamp;P1;durP1;ratioP1;P2;durP2;ratioP2
8399;SDS011;4237;47.030;15.396;2023-06-22T00:00:26;6.17;;;4.23;;
8399;SDS011;4237;47.030;15.396;2023-06-22T00:02:55;12.90;;;4.95;;
8399;SDS011;4237;47.030;15.396;2023-06-22T00:05:23;14.05;;;5.00;;
8399;SDS011;4237;47.030;15.396;2023-06-22T00:07:51;9.05;;;4.70;;
8399;SDS011;4237;47.030;15.396;2023-06-22T00:10:19;8.15;;;4.75;;
8399;SDS011;4237;47.030;15.396;2023-06-22T00:12:47;8.00;;;4.50;;
8399;SDS011;4237;47.030;15.396;2023-06-22T00:15:15;8.25;;;4.40;;
8399;SDS011;4237;47.030;15.396;2023-06-22T00:17:44;8.20;;;5.10;;
8399;SDS011;4237;47.030;15.396;2023-06-22T00:20:13;10.10;;;5.40;;
8399;SDS011;4237;47.030;15.396;2023-06-22T00:22:41;10.55;;;5.40;;
8399;SDS011;4237;47.030;15.396;2023-06-22T00:25:10;7.15;;;4.20;;
8399;SDS011;4237;47.030;15.396;2023-06-22T00:27:38;8.70;;;4.50;;
8399;SDS011;4237;47.030;15.396;2023-06-22T00:30:07;8.57;;;4.50;;
8399;SDS011;4237;47.030;15.396;2023-06-22T00:32:35;9.40;;;4.70;;
8399;SDS011;4237;47.030;15.396;2023-06-22T00:35:04;11.00;;;5.20;;
8399;SDS011;4237;47.030;15.396;2023-06-22T00:37:32;11.05;;;4.90;;
8399;SDS011;4237;47.030;15.396;2023-06-22T00:40:00;10.25;;;5.15;;
8399;SDS011;4237;47.030;15.396;2023-06-22T00:42:28;6.50;;;4.70;;
8399;SDS011;4237;47.030;15.396;2023-06-22T00:44:56;10.30;;;5.60;;
8399;SDS011;4237;47.030;15.396;2023-06-22T00:47:25;7.07;;;4.53;;
8399;SDS011;4237;47.030;15.396;2023-06-22T00:49:53;9.80;;;5.45;;
8399;SDS011;4237;47.030;15.396;2023-06-22T00:52:22;12.60;;;5.60;;
8399;SDS011;4237;47.030;15.396;2023-06-22T00:54:53;10.13;;;5.10;;
8399;SDS011;4237;47.030;15.396;2023-06-22T00:57:21;7.00;;;4.83;;
8399;SDS011;4237;47.030;15.396;2023-06-22T00:59:50;9.47;;;5.30;;
8399;SDS011;4237;47.030;15.396;2023-06-22T01:02:18;14.33;;;4.87;;
8399;SDS011;4237;47.030;15.396;2023-06-22T01:04:46;10.30;;;4.70;;
8399;SDS011;4237;47.030;15.396;2023-06-22T01:07:20;11.87;;;5.40;;
8399;SDS011;4237;47.030;15.396;2023-06-22T01:09:51;10.57;;;5.77;;
8399;SDS011;4237;47.030;15.396;2023-06-22T01:12:18;6.77;;;4.17;;
8399;SDS011;4237;47.030;15.396;2023-06-22T01:14:50;9.77;;;4.80;;
8399;SDS011;4237;47.030;15.396;2023-06-22T01:17:17;12.20;;;5.73;;
8399;SDS011;4237;47.030;15.396;2023-06-22T01:19:50;7.85;;;3.90;;
8399;SDS011;4237;47.030;15.396;2023-06-22T01:22:26;8.43;;;4.20;;
8399;SDS011;4237;47.030;15.396;2023-06-22T01:27:33;12.73;;;5.10;;
8399;SDS011;4237;47.030;15.396;2023-06-22T01:30:02;6.70;;;4.20;;
8399;SDS011;4237;47.030;15.396;2023-06-22T01:32:33;11.25;;;4.35;;
8399;SDS011;4237;47.030;15.396;2023-06-22T01:35:03;9.27;;;4.37;;
8399;SDS011;4237;47.030;15.396;2023-06-22T01:37:33;10.37;;;5.20;;
8399;SDS011;4237;47.030;15.396;2023-06-22T01:40:02;9.57;;;4.53;;
8399;SDS011;4237;47.030;15.396;2023-06-22T01:42:32;8.40;;;4.27;;
8399;SDS011;4237;47.030;15.396;2023-06-22T01:45:01;7.37;;;5.37;;
8399;SDS011;4237;47.030;15.396;2023-06-22T01:47:30;9.80;;;4.67;;
8399;SDS011;4237;47.030;15.396;2023-06-22T01:49:58;9.60;;;4.80;;
8399;SDS011;4237;47.030;15.396;2023-06-22T01:52:27;12.23;;;5.37;;
8399;SDS011;4237;47.030;15.396;2023-06-22T01:54:55;8.85;;;4.70;;
8399;SDS011;4237;47.030;15.396;2023-06-22T01:57:25;7.53;;;4.43;;
8399;SDS011;4237;47.030;15.396;2023-06-22T02:02:23;9.80;;;4.47;;
8399;SDS011;4237;47.030;15.396;2023-06-22T02:05:05;11.03;;;4.77;;
8399;SDS011;4237;47.030;15.396;2023-06-22T02:07:34;12.97;;;5.10;;
8399;SDS011;4237;47.030;15.396;2023-06-22T02:10:02;8.00;;;4.10;;
8399;SDS011;4237;47.030;15.396;2023-06-22T02:12:32;10.27;;;4.50;;
8399;SDS011;4237;47.030;15.396;2023-06-22T02:15:02;9.20;;;5.03;;
8399;SDS011;4237;47.030;15.396;2023-06-22T02:17:31;11.03;;;4.63;;
8399;SDS011;4237;47.030;15.396;2023-06-22T02:20:01;7.13;;;4.47;;
8399;SDS011;4237;47.030;15.396;2023-06-22T02:22:31;12.40;;;4.73;;
8399;SDS011;4237;47.030;15.396;2023-06-22T02:25:00;12.35;;;5.65;;
8399;SDS011;4237;47.030;15.396;2023-06-22T02:27:28;10.37;;;4.70;;
8399;SDS011;4237;47.030;15.396;2023-06-22T02:29:56;7.70;;;5.00;;
8399;SDS011;4237;47.030;15.396;2023-06-22T02:32:25;10.10;;;5.40;;
8399;SDS011;4237;47.030;15.396;2023-06-22T02:34:53;8.60;;;4.85;;
8399;SDS011;4237;47.030;15.396;2023-06-22T02:37:21;13.40;;;5.73;;
8399;SDS011;4237;47.030;15.396;2023-06-22T02:39:51;12.30;;;5.15;;
8399;SDS011;4237;47.030;15.396;2023-06-22T02:42:20;10.83;;;5.00;;
8399;SDS011;4237;47.030;15.396;2023-06-22T02:44:49;9.67;;;5.00;;
8399;SDS011;4237;47.030;15.396;2023-06-22T02:47:17;8.47;;;4.80;;
8399;SDS011;4237;47.030;15.396;2023-06-22T02:49:46;11.13;;;5.80;;
8399;SDS011;4237;47.030;15.396;2023-06-22T02:52:14;14.20;;;5.27;;
8399;SDS011;4237;47.030;15.396;2023-06-22T02:54:42;12.33;;;5.53;;
8399;SDS011;4237;47.030;15.396;2023-06-22T02:57:12;9.75;;;5.00;;
8399;SDS011;4237;47.030;15.396;2023-06-22T02:59:41;9.10;;;5.10;;
8399;SDS011;4237;47.030;15.396;2023-06-22T03:02:09;9.40;;;5.30;;
8399;SDS011;4237;47.030;15.396;2023-06-22T03:04:38;9.07;;;4.60;;
8399;SDS011;4237;47.030;15.396;2023-06-22T03:07:06;7.33;;;5.10;;
8399;SDS011;4237;47.030;15.396;2023-06-22T03:09:35;12.83;;;5.33;;
8399;SDS011;4237;47.030;15.396;2023-06-22T03:12:03;8.93;;;4.77;;
8399;SDS011;4237;47.030;15.396;2023-06-22T03:14:31;9.47;;;5.20;;
8399;SDS011;4237;47.030;15.396;2023-06-22T03:16:59;9.63;;;5.17;;
8399;SDS011;4237;47.030;15.396;2023-06-22T03:19:29;8.47;;;5.20;;
8399;SDS011;4237;47.030;15.396;2023-06-22T03:21:59;8.40;;;4.90;;
8399;SDS011;4237;47.030;15.396;2023-06-22T03:24:27;10.03;;;5.07;;
8399;SDS011;4237;47.030;15.396;2023-06-22T03:26:56;8.73;;;5.50;;
8399;SDS011;4237;47.030;15.396;2023-06-22T03:29:25;11.07;;;5.57;;
8399;SDS011;4237;47.030;15.396;2023-06-22T03:31:53;9.93;;;5.23;;
8399;SDS011;4237;47.030;15.396;2023-06-22T03:34:21;12.50;;;5.70;;
8399;SDS011;4237;47.030;15.396;2023-06-22T03:36:49;11.17;;;6.13;;
8399;SDS011;4237;47.030;15.396;2023-06-22T03:39:17;10.37;;;5.70;;
8399;SDS011;4237;47.030;15.396;2023-06-22T03:41:46;10.27;;;5.80;;
8399;SDS011;4237;47.030;15.396;2023-06-22T03:44:14;10.25;;;5.10;;
8399;SDS011;4237;47.030;15.396;2023-06-22T03:46:43;13.50;;;6.10;;
8399;SDS011;4237;47.030;15.396;2023-06-22T03:49:11;12.23;;;5.40;;
8399;SDS011;4237;47.030;15.396;2023-06-22T03:51:39;9.57;;;5.57;;
8399;SDS011;4237;47.030;15.396;2023-06-22T03:54:07;8.67;;;5.17;;
8399;SDS011;4237;47.030;15.396;2023-06-22T03:56:35;11.53;;;6.70;;
8399;SDS011;4237;47.030;15.396;2023-06-22T03:59:04;13.17;;;5.87;;
8399;SDS011;4237;47.030;15.396;2023-06-22T04:01:32;12.80;;;5.35;;
8399;SDS011;4237;47.030;15.396;2023-06-22T04:04:00;10.10;;;5.77;;
8399;SDS011;4237;47.030;15.396;2023-06-22T04:06:29;11.50;;;5.73;;
8399;SDS011;4237;47.030;15.396;2023-06-22T04:08:57;7.87;;;4.90;;
8399;SDS011;4237;47.030;15.396;2023-06-22T04:11:25;9.13;;;5.50;;
8399;SDS011;4237;47.030;15.396;2023-06-22T04:13:53;12.10;;;5.50;;
8399;SDS011;4237;47.030;15.396;2023-06-22T04:16:21;10.10;;;5.50;;
8399;SDS011;4237;47.030;15.396;2023-06-22T04:18:49;11.67;;;6.00;;
8399;SDS011;4237;47.030;15.396;2023-06-22T04:21:18;7.10;;;5.10;;
8399;SDS011;4237;47.030;15.396;2023-06-22T04:23:46;16.37;;;6.23;;
8399;SDS011;4237;47.030;15.396;2023-06-22T04:26:15;12.00;;;6.10;;
8399;SDS011;4237;47.030;15.396;2023-06-22T04:28:43;11.93;;;6.70;;
8399;SDS011;4237;47.030;15.396;2023-06-22T04:31:13;12.70;;;6.30;;
8399;SDS011;4237;47.030;15.396;2023-06-22T04:33:41;12.20;;;6.15;;
8399;SDS011;4237;47.030;15.396;2023-06-22T04:36:09;14.45;;;6.35;;
8399;SDS011;4237;47.030;15.396;2023-06-22T04:38:39;11.00;;;6.15;;
8399;SDS011;4237;47.030;15.396;2023-06-22T04:41:07;8.23;;;5.93;;
8399;SDS011;4237;47.030;15.396;2023-06-22T04:43:37;13.10;;;6.30;;
8399;SDS011;4237;47.030;15.396;2023-06-22T04:46:05;13.97;;;6.33;;
8399;SDS011;4237;47.030;15.396;2023-06-22T04:48:34;12.25;;;5.80;;
8399;SDS011;4237;47.030;15.396;2023-06-22T04:51:02;13.00;;;6.00;;
8399;SDS011;4237;47.030;15.396;2023-06-22T04:53:31;12.63;;;5.20;;
8399;SDS011;4237;47.030;15.396;2023-06-22T04:55:59;8.60;;;5.47;;
8399;SDS011;4237;47.030;15.396;2023-06-22T04:58:28;11.40;;;5.83;;
8399;SDS011;4237;47.030;15.396;2023-06-22T05:00:57;14.13;;;5.80;;
8399;SDS011;4237;47.030;15.396;2023-06-22T05:03:26;16.40;;;6.50;;
8399;SDS011;4237;47.030;15.396;2023-06-22T05:05:54;11.00;;;6.20;;
8399;SDS011;4237;47.030;15.396;2023-06-22T05:10:51;10.90;;;6.00;;
8399;SDS011;4237;47.030;15.396;2023-06-22T05:13:19;10.50;;;6.20;;
8399;SDS011;4237;47.030;15.396;2023-06-22T05:15:49;8.70;;;5.45;;
8399;SDS011;4237;47.030;15.396;2023-06-22T05:18:17;9.80;;;5.70;;
8399;SDS011;4237;47.030;15.396;2023-06-22T05:20:47;11.40;;;6.20;;
8399;SDS011;4237;47.030;15.396;2023-06-22T05:23:15;9.50;;;5.70;;
8399;SDS011;4237;47.030;15.396;2023-06-22T05:25:43;13.35;;;6.25;;
8399;SDS011;4237;47.030;15.396;2023-06-22T05:28:11;11.70;;;7.20;;
8399;SDS011;4237;47.030;15.396;2023-06-22T05:33:07;8.55;;;6.20;;
8399;SDS011;4237;47.030;15.396;2023-06-22T05:35:35;10.65;;;6.80;;
8399;SDS011;4237;47.030;15.396;2023-06-22T05:38:03;14.40;;;5.65;;
8399;SDS011;4237;47.030;15.396;2023-06-22T05:40:31;10.00;;;5.80;;
8399;SDS011;4237;47.030;15.396;2023-06-22T05:42:59;11.60;;;6.30;;
8399;SDS011;4237;47.030;15.396;2023-06-22T05:45:29;15.00;;;6.25;;
8399;SDS011;4237;47.030;15.396;2023-06-22T05:47:57;12.27;;;6.20;;
8399;SDS011;4237;47.030;15.396;2023-06-22T05:50:25;13.00;;;6.23;;
8399;SDS011;4237;47.030;15.396;2023-06-22T05:52:53;12.90;;;5.80;;
8399;SDS011;4237;47.030;15.396;2023-06-22T05:55:21;12.80;;;5.95;;
8399;SDS011;4237;47.030;15.396;2023-06-22T05:57:50;12.57;;;5.90;;
8399;SDS011;4237;47.030;15.396;2023-06-22T06:00:18;11.53;;;6.33;;
8399;SDS011;4237;47.030;15.396;2023-06-22T06:02:47;10.90;;;6.00;;
8399;SDS011;4237;47.030;15.396;2023-06-22T06:05:16;13.90;;;5.75;;
8399;SDS011;4237;47.030;15.396;2023-06-22T06:07:45;9.00;;;5.80;;
8399;SDS011;4237;47.030;15.396;2023-06-22T06:10:14;6.30;;;5.00;;
8399;SDS011;4237;47.030;15.396;2023-06-22T06:12:42;16.90;;;7.00;;
8399;SDS011;4237;47.030;15.396;2023-06-22T06:15:10;12.60;;;5.77;;
8399;SDS011;4237;47.030;15.396;2023-06-22T06:17:45;13.60;;;6.83;;
8399;SDS011;4237;47.030;15.396;2023-06-22T06:20:14;12.65;;;5.70;;
8399;SDS011;4237;47.030;15.396;2023-06-22T06:22:42;12.80;;;5.50;;
8399;SDS011;4237;47.030;15.396;2023-06-22T06:27:39;11.30;;;5.50;;
8399;SDS011;4237;47.030;15.396;2023-06-22T06:39:57;11.90;;;6.20;;
8399;SDS011;4237;47.030;15.396;2023-06-22T06:42:25;14.70;;;6.95;;
8399;SDS011;4237;47.030;15.396;2023-06-22T06:44:53;14.60;;;6.40;;
8399;SDS011;4237;47.030;15.396;2023-06-22T06:47:22;15.70;;;6.40;;
8399;SDS011;4237;47.030;15.396;2023-06-22T06:49:50;14.65;;;6.40;;
8399;SDS011;4237;47.030;15.396;2023-06-22T06:52:18;12.25;;;6.65;;
8399;SDS011;4237;47.030;15.396;2023-06-22T06:54:47;14.23;;;6.62;;
8399;SDS011;4237;47.030;15.396;2023-06-22T06:57:15;17.50;;;7.10;;
8399;SDS011;4237;47.030;15.396;2023-06-22T06:59:43;16.90;;;7.45;;
8399;SDS011;4237;47.030;15.396;2023-06-22T07:02:12;11.00;;;6.20;;
8399;SDS011;4237;47.030;15.396;2023-06-22T07:09:36;14.90;;;6.20;;
8399;SDS011;4237;47.030;15.396;2023-06-22T07:12:05;15.30;;;6.33;;
8399;SDS011;4237;47.030;15.396;2023-06-22T07:17:21;14.98;;;5.45;;
8399;SDS011;4237;47.030;15.396;2023-06-22T07:19:49;10.18;;;5.58;;
8399;SDS011;4237;47.030;15.396;2023-06-22T07:22:17;14.40;;;6.40;;
8399;SDS011;4237;47.030;15.396;2023-06-22T07:24:45;10.80;;;5.90;;
8399;SDS011;4237;47.030;15.396;2023-06-22T07:27:14;14.20;;;6.60;;
8399;SDS011;4237;47.030;15.396;2023-06-22T07:29:43;14.80;;;6.40;;
8399;SDS011;4237;47.030;15.396;2023-06-22T07:32:12;12.30;;;5.90;;
8399;SDS011;4237;47.030;15.396;2023-06-22T07:34:40;9.83;;;5.83;;
8399;SDS011;4237;47.030;15.396;2023-06-22T07:37:08;10.30;;;4.90;;
8399;SDS011;4237;47.030;15.396;2023-06-22T07:39:37;9.05;;;5.25;;
8399;SDS011;4237;47.030;15.396;2023-06-22T07:44:32;10.50;;;5.40;;
8399;SDS011;4237;47.030;15.396;2023-06-22T07:54:23;9.20;;;5.50;;
8399;SDS011;4237;47.030;15.396;2023-06-22T08:01:47;19.15;;;5.85;;
8399;SDS011;4237;47.030;15.396;2023-06-22T08:04:16;7.30;;;6.00;;
8399;SDS011;4237;47.030;15.396;2023-06-22T08:06:44;13.10;;;6.20;;
8399;SDS011;4237;47.030;15.396;2023-06-22T08:09:12;12.00;;;5.80;;
8399;SDS011;4237;47.030;15.396;2023-06-22T08:11:40;8.90;;;5.45;;
8399;SDS011;4237;47.030;15.396;2023-06-22T08:14:09;14.40;;;5.40;;
8399;SDS011;4237;47.030;15.396;2023-06-22T08:16:37;8.10;;;5.10;;
8399;SDS011;4237;47.030;15.396;2023-06-22T08:19:05;12.90;;;4.60;;
8399;SDS011;4237;47.030;15.396;2023-06-22T08:24:00;17.20;;;5.60;;
8399;SDS011;4237;47.030;15.396;2023-06-22T08:26:29;16.00;;;5.70;;
8399;SDS011;4237;47.030;15.396;2023-06-22T08:33:52;11.30;;;5.70;;
8399;SDS011;4237;47.030;15.396;2023-06-22T08:36:20;9.00;;;4.60;;
8399;SDS011;4237;47.030;15.396;2023-06-22T08:38:48;11.10;;;5.60;;
8399;SDS011;4237;47.030;15.396;2023-06-22T08:43:45;8.00;;;4.80;;
8399;SDS011;4237;47.030;15.396;2023-06-22T08:46:14;15.50;;;5.40;;
8399;SDS011;4237;47.030;15.396;2023-06-22T08:48:43;9.20;;;5.70;;
8399;SDS011;4237;47.030;15.396;2023-06-22T08:53:41;17.20;;;5.40;;
8399;SDS011;4237;47.030;15.396;2023-06-22T09:01:05;9.50;;;5.70;;
8399;SDS011;4237;47.030;15.396;2023-06-22T09:08:30;7.70;;;4.35;;
8399;SDS011;4237;47.030;15.396;2023-06-22T09:10:58;9.15;;;5.15;;
8399;SDS011;4237;47.030;15.396;2023-06-22T09:13:27;8.40;;;4.40;;
8399;SDS011;4237;47.030;15.396;2023-06-22T09:15:56;10.30;;;4.95;;
8399;SDS011;4237;47.030;15.396;2023-06-22T09:18:24;16.30;;;5.90;;
8399;SDS011;4237;47.030;15.396;2023-06-22T09:20:52;9.40;;;4.80;;
8399;SDS011;4237;47.030;15.396;2023-06-22T09:25:48;10.20;;;5.20;;
8399;SDS011;4237;47.030;15.396;2023-06-22T09:28:16;10.10;;;5.20;;
8399;SDS011;4237;47.030;15.396;2023-06-22T09:33:11;22.15;;;6.60;;
8399;SDS011;4237;47.030;15.396;2023-06-22T09:35:40;11.25;;;5.60;;
8399;SDS011;4237;47.030;15.396;2023-06-22T09:38:08;9.10;;;5.40;;
8399;SDS011;4237;47.030;15.396;2023-06-22T09:40:36;9.05;;;4.90;;
8399;SDS011;4237;47.030;15.396;2023-06-22T09:43:06;12.50;;;5.90;;
8399;SDS011;4237;47.030;15.396;2023-06-22T09:45:34;9.20;;;5.40;;
8399;SDS011;4237;47.030;15.396;2023-06-22T09:48:02;7.60;;;5.10;;
8399;SDS011;4237;47.030;15.396;2023-06-22T09:52:58;11.15;;;5.40;;
8399;SDS011;4237;47.030;15.396;2023-06-22T09:55:26;14.25;;;5.55;;
8399;SDS011;4237;47.030;15.396;2023-06-22T09:57:54;11.60;;;5.90;;
8399;SDS011;4237;47.030;15.396;2023-06-22T10:00:22;16.60;;;5.55;;
8399;SDS011;4237;47.030;15.396;2023-06-22T10:02:51;11.35;;;5.15;;
8399;SDS011;4237;47.030;15.396;2023-06-22T10:05:19;11.40;;;5.70;;
8399;SDS011;4237;47.030;15.396;2023-06-22T10:07:47;11.50;;;5.55;;
8399;SDS011;4237;47.030;15.396;2023-06-22T10:10:15;8.60;;;5.40;;
8399;SDS011;4237;47.030;15.396;2023-06-22T10:12:45;13.15;;;5.60;;
8399;SDS011;4237;47.030;15.396;2023-06-22T10:15:13;8.70;;;5.20;;
8399;SDS011;4237;47.030;15.396;2023-06-22T10:17:42;10.60;;;5.20;;
8399;SDS011;4237;47.030;15.396;2023-06-22T10:25:06;7.10;;;4.80;;
8399;SDS011;4237;47.030;15.396;2023-06-22T10:27:35;8.10;;;4.80;;
8399;SDS011;4237;47.030;15.396;2023-06-22T11:14:20;12.93;;;5.35;;
8399;SDS011;4237;47.030;15.396;2023-06-22T11:16:49;10.10;;;5.65;;
8399;SDS011;4237;47.030;15.396;2023-06-22T11:19:17;13.55;;;6.05;;
8399;SDS011;4237;47.030;15.396;2023-06-22T11:21:46;10.85;;;5.42;;
8399;SDS011;4237;47.030;15.396;2023-06-22T13:37:00;11.75;;;6.08;;
8399;SDS011;4237;47.030;15.396;2023-06-22T13:39:29;12.43;;;6.80;;
8399;SDS011;4237;47.030;15.396;2023-06-22T13:41:58;11.65;;;6.45;;
8399;SDS011;4237;47.030;15.396;2023-06-22T13:44:26;11.95;;;6.33;;
8399;SDS011;4237;47.030;15.396;2023-06-22T14:48:26;14.18;;;7.28;;
8399;SDS011;4237;47.030;15.396;2023-06-22T14:50:54;12.98;;;6.33;;
8399;SDS011;4237;47.030;15.396;2023-06-22T14:53:22;11.70;;;6.58;;
8399;SDS011;4237;47.030;15.396;2023-06-22T14:55:50;8.70;;;6.75;;
8399;SDS011;4237;47.030;15.396;2023-06-22T14:58:20;17.57;;;6.85;;
8399;SDS011;4237;47.030;15.396;2023-06-22T15:00:48;15.30;;;6.75;;
8399;SDS011;4237;47.030;15.396;2023-06-22T15:03:17;12.23;;;6.25;;
8399;SDS011;4237;47.030;15.396;2023-06-22T15:05:47;16.55;;;7.28;;
8399;SDS011;4237;47.030;15.396;2023-06-22T15:08:15;14.18;;;7.17;;
8399;SDS011;4237;47.030;15.396;2023-06-22T15:10:43;14.85;;;6.55;;
8399;SDS011;4237;47.030;15.396;2023-06-22T15:13:11;13.32;;;7.05;;
8399;SDS011;4237;47.030;15.396;2023-06-22T15:15:39;12.33;;;6.15;;
8399;SDS011;4237;47.030;15.396;2023-06-22T15:18:08;10.63;;;6.42;;
8399;SDS011;4237;47.030;15.396;2023-06-22T15:20:36;13.75;;;7.30;;
8399;SDS011;4237;47.030;15.396;2023-06-22T15:23:05;10.20;;;6.33;;
8399;SDS011;4237;47.030;15.396;2023-06-22T15:25:34;9.18;;;6.80;;
8399;SDS011;4237;47.030;15.396;2023-06-22T15:28:02;13.53;;;7.25;;
8399;SDS011;4237;47.030;15.396;2023-06-22T15:30:30;11.10;;;6.70;;
8399;SDS011;4237;47.030;15.396;2023-06-22T15:32:59;10.00;;;6.95;;
8399;SDS011;4237;47.030;15.396;2023-06-22T15:35:28;13.20;;;7.62;;
8399;SDS011;4237;47.030;15.396;2023-06-22T15:37:56;9.85;;;7.20;;
8399;SDS011;4237;47.030;15.396;2023-06-22T15:40:24;12.88;;;7.03;;
8399;SDS011;4237;47.030;15.396;2023-06-22T15:42:53;15.55;;;6.75;;
8399;SDS011;4237;47.030;15.396;2023-06-22T15:45:21;13.90;;;7.40;;
8399;SDS011;4237;47.030;15.396;2023-06-22T15:47:49;14.90;;;7.90;;
8399;SDS011;4237;47.030;15.396;2023-06-22T15:50:18;11.25;;;7.00;;
8399;SDS011;4237;47.030;15.396;2023-06-22T15:52:46;13.68;;;6.92;;
8399;SDS011;4237;47.030;15.396;2023-06-22T15:55:14;12.70;;;7.17;;
8399;SDS011;4237;47.030;15.396;2023-06-22T15:57:42;18.55;;;7.37;;
8399;SDS011;4237;47.030;15.396;2023-06-22T16:00:16;13.43;;;7.42;;
8399;SDS011;4237;47.030;15.396;2023-06-22T16:02:45;11.20;;;6.97;;
8399;SDS011;4237;47.030;15.396;2023-06-22T16:05:14;13.03;;;6.85;;
8399;SDS011;4237;47.030;15.396;2023-06-22T16:07:42;11.28;;;6.80;;
8399;SDS011;4237;47.030;15.396;2023-06-22T16:10:10;13.62;;;7.28;;
8399;SDS011;4237;47.030;15.396;2023-06-22T16:12:41;13.15;;;6.80;;
8399;SDS011;4237;47.030;15.396;2023-06-22T16:15:11;13.75;;;6.58;;
8399;SDS011;4237;47.030;15.396;2023-06-22T16:17:40;12.13;;;6.58;;
8399;SDS011;4237;47.030;15.396;2023-06-22T16:20:08;16.70;;;7.22;;
8399;SDS011;4237;47.030;15.396;2023-06-22T16:22:37;10.03;;;6.80;;
8399;SDS011;4237;47.030;15.396;2023-06-22T16:25:05;13.30;;;6.72;;
8399;SDS011;4237;47.030;15.396;2023-06-22T16:27:33;17.37;;;7.65;;
8399;SDS011;4237;47.030;15.396;2023-06-22T16:30:02;13.68;;;8.60;;
8399;SDS011;4237;47.030;15.396;2023-06-22T16:32:30;12.03;;;7.12;;
8399;SDS011;4237;47.030;15.396;2023-06-22T16:34:58;11.15;;;6.67;;
8399;SDS011;4237;47.030;15.396;2023-06-22T16:37:27;12.07;;;6.37;;
8399;SDS011;4237;47.030;15.396;2023-06-22T16:39:55;13.10;;;7.00;;
8399;SDS011;4237;47.030;15.396;2023-06-22T16:42:23;10.93;;;6.92;;
8399;SDS011;4237;47.030;15.396;2023-06-22T16:44:51;13.05;;;7.47;;
8399;SDS011;4237;47.030;15.396;2023-06-22T16:47:19;14.75;;;6.62;;
8399;SDS011;4237;47.030;15.396;2023-06-22T16:49:48;11.83;;;6.67;;
8399;SDS011;4237;47.030;15.396;2023-06-22T16:52:16;11.20;;;7.37;;
8399;SDS011;4237;47.030;15.396;2023-06-22T16:54:45;11.88;;;7.12;;
8399;SDS011;4237;47.030;15.396;2023-06-22T16:57:14;12.82;;;6.90;;
8399;SDS011;4237;47.030;15.396;2023-06-22T16:59:43;14.05;;;7.10;;
8399;SDS011;4237;47.030;15.396;2023-06-22T17:02:16;14.45;;;7.33;;
8399;SDS011;4237;47.030;15.396;2023-06-22T17:04:41;12.33;;;7.12;;
8399;SDS011;4237;47.030;15.396;2023-06-22T17:07:13;14.45;;;7.50;;
8399;SDS011;4237;47.030;15.396;2023-06-22T17:09:42;11.38;;;6.92;;
8399;SDS011;4237;47.030;15.396;2023-06-22T17:12:10;12.05;;;7.08;;
8399;SDS011;4237;47.030;15.396;2023-06-22T17:14:39;11.68;;;6.75;;
8399;SDS011;4237;47.030;15.396;2023-06-22T17:17:10;13.72;;;7.08;;
8399;SDS011;4237;47.030;15.396;2023-06-22T17:19:38;12.80;;;7.47;;
8399;SDS011;4237;47.030;15.396;2023-06-22T17:22:06;11.68;;;7.72;;
8399;SDS011;4237;47.030;15.396;2023-06-22T17:24:35;12.63;;;7.65;;
8399;SDS011;4237;47.030;15.396;2023-06-22T17:27:03;10.15;;;6.42;;
8399;SDS011;4237;47.030;15.396;2023-06-22T17:29:32;14.38;;;7.33;;
8399;SDS011;4237;47.030;15.396;2023-06-22T17:32:02;12.53;;;7.40;;
8399;SDS011;4237;47.030;15.396;2023-06-22T17:34:32;16.30;;;7.58;;
8399;SDS011;4237;47.030;15.396;2023-06-22T17:37:00;14.75;;;8.15;;
8399;SDS011;4237;47.030;15.396;2023-06-22T17:39:29;13.58;;;7.87;;
8399;SDS011;4237;47.030;15.396;2023-06-22T17:41:57;11.95;;;7.22;;
8399;SDS011;4237;47.030;15.396;2023-06-22T17:44:26;13.30;;;7.10;;
8399;SDS011;4237;47.030;15.396;2023-06-22T17:46:55;16.50;;;7.83;;
8399;SDS011;4237;47.030;15.396;2023-06-22T17:49:27;13.28;;;7.80;;
8399;SDS011;4237;47.030;15.396;2023-06-22T17:51:56;11.53;;;7.53;;
8399;SDS011;4237;47.030;15.396;2023-06-22T17:54:28;13.13;;;7.05;;
8399;SDS011;4237;47.030;15.396;2023-06-22T17:56:54;14.30;;;7.60;;
8399;SDS011;4237;47.030;15.396;2023-06-22T17:59:22;12.90;;;7.50;;
8399;SDS011;4237;47.030;15.396;2023-06-22T18:01:50;12.95;;;7.05;;
8399;SDS011;4237;47.030;15.396;2023-06-22T18:04:18;11.73;;;7.15;;
8399;SDS011;4237;47.030;15.396;2023-06-22T18:06:47;11.63;;;7.40;;
8399;SDS011;4237;47.030;15.396;2023-06-22T18:09:16;11.83;;;8.15;;
8399;SDS011;4237;47.030;15.396;2023-06-22T18:11:46;13.75;;;7.33;;
8399;SDS011;4237;47.030;15.396;2023-06-22T18:14:14;13.10;;;7.60;;
8399;SDS011;4237;47.030;15.396;2023-06-22T18:16:43;12.68;;;7.60;;
8399;SDS011;4237;47.030;15.396;2023-06-22T18:19:15;17.30;;;8.28;;
8399;SDS011;4237;47.030;15.396;2023-06-22T18:21:47;14.93;;;7.75;;
8399;SDS011;4237;47.030;15.396;2023-06-22T18:24:16;12.20;;;8.05;;
8399;SDS011;4237;47.030;15.396;2023-06-22T18:26:45;10.78;;;7.60;;
8399;SDS011;4237;47.030;15.396;2023-06-22T18:29:13;16.37;;;7.27;;
8399;SDS011;4237;47.030;15.396;2023-06-22T18:31:41;10.18;;;7.05;;
8399;SDS011;4237;47.030;15.396;2023-06-22T18:34:10;14.83;;;7.50;;
8399;SDS011;4237;47.030;15.396;2023-06-22T18:39:09;13.13;;;7.03;;
8399;SDS011;4237;47.030;15.396;2023-06-22T18:41:40;15.60;;;8.30;;
8399;SDS011;4237;47.030;15.396;2023-06-22T18:44:51;13.07;;;8.07;;
8399;SDS011;4237;47.030;15.396;2023-06-22T18:46:40;11.03;;;7.43;;
8399;SDS011;4237;47.030;15.396;2023-06-22T18:49:12;11.13;;;7.23;;
8399;SDS011;4237;47.030;15.396;2023-06-22T18:51:48;13.43;;;8.27;;
8399;SDS011;4237;47.030;15.396;2023-06-22T18:59:49;14.27;;;7.87;;
8399;SDS011;4237;47.030;15.396;2023-06-22T19:10:24;14.33;;;7.80;;
8399;SDS011;4237;47.030;15.396;2023-06-22T19:15:30;10.40;;;6.93;;
8399;SDS011;4237;47.030;15.396;2023-06-22T19:18:12;15.27;;;7.43;;
8399;SDS011;4237;47.030;15.396;2023-06-22T19:20:31;12.93;;;7.63;;
8399;SDS011;4237;47.030;15.396;2023-06-22T19:23:01;11.43;;;7.77;;
8399;SDS011;4237;47.030;15.396;2023-06-22T19:25:30;12.67;;;8.30;;
8399;SDS011;4237;47.030;15.396;2023-06-22T19:28:00;19.00;;;8.43;;
8399;SDS011;4237;47.030;15.396;2023-06-22T19:30:28;11.03;;;8.17;;
8399;SDS011;4237;47.030;15.396;2023-06-22T19:32:58;13.37;;;7.77;;
8399;SDS011;4237;47.030;15.396;2023-06-22T19:35:26;12.30;;;7.67;;
8399;SDS011;4237;47.030;15.396;2023-06-22T19:37:56;11.13;;;7.83;;
8399;SDS011;4237;47.030;15.396;2023-06-22T19:40:25;11.70;;;8.00;;
8399;SDS011;4237;47.030;15.396;2023-06-22T19:42:53;12.20;;;7.63;;
8399;SDS011;4237;47.030;15.396;2023-06-22T19:45:25;15.43;;;8.23;;
8399;SDS011;4237;47.030;15.396;2023-06-22T19:47:53;13.53;;;8.57;;
8399;SDS011;4237;47.030;15.396;2023-06-22T19:50:21;14.90;;;8.33;;
8399;SDS011;4237;47.030;15.396;2023-06-22T19:52:49;12.80;;;7.83;;
8399;SDS011;4237;47.030;15.396;2023-06-22T19:55:18;13.43;;;7.87;;
8399;SDS011;4237;47.030;15.396;2023-06-22T19:57:46;9.67;;;7.03;;
8399;SDS011;4237;47.030;15.396;2023-06-22T20:00:22;17.83;;;8.87;;
8399;SDS011;4237;47.030;15.396;2023-06-22T20:02:49;14.73;;;8.07;;
8399;SDS011;4237;47.030;15.396;2023-06-22T20:05:19;16.30;;;8.63;;
8399;SDS011;4237;47.030;15.396;2023-06-22T20:07:46;11.37;;;7.70;;
8399;SDS011;4237;47.030;15.396;2023-06-22T20:10:15;15.93;;;7.70;;
8399;SDS011;4237;47.030;15.396;2023-06-22T20:12:47;14.17;;;8.53;;
8399;SDS011;4237;47.030;15.396;2023-06-22T20:15:14;12.00;;;7.90;;
8399;SDS011;4237;47.030;15.396;2023-06-22T20:17:43;12.23;;;8.80;;
8399;SDS011;4237;47.030;15.396;2023-06-22T20:20:18;15.00;;;8.90;;
8399;SDS011;4237;47.030;15.396;2023-06-22T20:22:47;13.30;;;8.60;;
8399;SDS011;4237;47.030;15.396;2023-06-22T20:25:24;12.30;;;8.07;;
8399;SDS011;4237;47.030;15.396;2023-06-22T20:27:48;16.57;;;8.70;;
8399;SDS011;4237;47.030;15.396;2023-06-22T20:30:17;13.20;;;8.53;;
8399;SDS011;4237;47.030;15.396;2023-06-22T20:32:47;20.13;;;9.27;;
8399;SDS011;4237;47.030;15.396;2023-06-22T20:35:16;15.40;;;8.87;;